Time;durP1;ratioP1;P1;durP2;ratioP2;P2;SDS_P1;SDS_P2;PMS_P1;PMS_P2;Temp;Humidity;BMP_temperature;BMP_pressure;BME280_temperature;BME280_humidity;BME280_pressure;Samples;Min_cycle;Max_cycle;Signal;HPM_P1;HPM_P2
2022/11/22 00:00:33;;;;;;;10.90;3.30;;;-0.70;97.30;;;;;;5054384;28;20825;-87
2022/11/22 00:02:58;;;;;;;2.97;2.77;;;-0.70;97.30;;;;;;5054690;28;20195;-87
2022/11/22 00:05:24;;;;;;;4.40;3.13;;;-0.70;97.30;;;;;;5054684;28;20179;-87
2022/11/22 00:07:49;;;;;;;3.60;3.40;;;-0.70;97.30;;;;;;5054903;28;20175;-87
2022/11/22 00:10:15;;;;;;;2.83;2.63;;;-0.70;97.30;;;;;;5054558;28;20539;-87
2022/11/22 00:12:41;;;;;;;7.03;4.07;;;-0.70;97.30;;;;;;5072597;28;20599;-86
2022/11/22 00:15:08;;;;;;;4.40;3.77;;;-0.70;97.30;;;;;;5054599;28;20197;-86
2022/11/22 00:17:34;;;;;;;4.17;3.20;;;-0.70;97.30;;;;;;5053737;28;20913;-87
2022/11/22 00:19:59;;;;;;;3.10;2.90;;;-0.70;97.30;;;;;;5054484;28;20410;-87
2022/11/22 00:22:25;;;;;;;3.90;3.43;;;-0.70;97.30;;;;;;5054339;28;20939;-87
2022/11/22 00:24:51;;;;;;;5.60;3.43;;;-0.70;97.30;;;;;;5054675;28;20205;-87
2022/11/22 00:27:17;;;;;;;5.43;5.07;;;-0.70;97.30;;;;;;5054362;28;20179;-87
2022/11/22 00:29:42;;;;;;;5.53;3.67;;;-0.70;97.30;;;;;;5054985;28;20479;-87
2022/11/22 00:32:08;;;;;;;3.93;2.60;;;-0.60;97.30;;;;;;5050693;28;20457;-87
2022/11/22 00:34:33;;;;;;;5.07;4.77;;;-0.60;97.30;;;;;;5052200;28;20199;-87
2022/11/22 00:36:59;;;;;;;3.77;3.57;;;-0.60;97.30;;;;;;5054131;28;20175;-87
2022/11/22 00:39:24;;;;;;;6.27;3.07;;;-0.60;97.30;;;;;;5054051;28;20214;-87
2022/11/22 00:41:50;;;;;;;6.50;4.67;;;-0.60;97.30;;;;;;5053889;28;20207;-87
2022/11/22 00:44:16;;;;;;;3.50;2.60;;;-0.60;97.30;;;;;;5054015;28;20194;-87
2022/11/22 00:46:41;;;;;;;20.50;7.00;;;-0.60;97.30;;;;;;5054510;28;20210;-86
2022/11/22 00:49:07;;;;;;;11.73;3.63;;;-0.60;97.30;;;;;;5053865;28;20581;-87
2022/11/22 00:51:32;;;;;;;15.83;3.23;;;-0.60;97.30;;;;;;5054057;28;20742;-87
2022/11/22 00:53:58;;;;;;;8.97;3.40;;;-0.60;97.30;;;;;;5053802;28;20199;-86
2022/11/22 00:56:23;;;;;;;3.17;2.97;;;-0.60;97.30;;;;;;5053898;28;20217;-85
2022/11/22 00:58:49;;;;;;;2.90;2.33;;;-0.70;97.30;;;;;;5053671;28;20269;-86
2022/11/22 01:01:14;;;;;;;3.17;2.97;;;-0.70;97.30;;;;;;5054124;28;20348;-86
2022/11/22 01:03:40;;;;;;;3.33;3.17;;;-0.70;97.30;;;;;;5054006;28;20230;-86
2022/11/22 01:06:05;;;;;;;4.90;4.60;;;-0.70;97.30;;;;;;5053824;28;20194;-86
2022/11/22 01:08:31;;;;;;;7.10;2.77;;;-0.70;97.30;;;;;;5053177;28;20184;-86
2022/11/22 01:10:58;;;;;;;14.20;5.23;;;-0.70;97.30;;;;;;5053199;28;20182;-86
2022/11/22 01:13:25;;;;;;;5.40;3.60;;;-0.70;97.30;;;;;;5070950;28;20203;-86
2022/11/22 01:15:51;;;;;;;4.00;2.80;;;-0.70;97.30;;;;;;5053201;28;20432;-86
2022/11/22 01:18:16;;;;;;;5.63;4.73;;;-0.70;97.30;;;;;;5052885;28;20519;-86
2022/11/22 01:20:42;;;;;;;3.90;3.70;;;-0.70;97.30;;;;;;5053039;28;20235;-86
2022/11/22 01:23:08;;;;;;;12.13;3.70;;;-0.70;97.30;;;;;;5052615;28;20221;-87
2022/11/22 01:25:34;;;;;;;3.30;3.10;;;-0.70;97.30;;;;;;5053164;28;20994;-86
2022/11/22 01:27:59;;;;;;;3.20;2.30;;;-0.80;97.30;;;;;;5052826;28;20182;-86
2022/11/22 01:30:25;;;;;;;6.80;3.80;;;-0.80;97.30;;;;;;5052669;28;20547;-86
2022/11/22 01:32:51;;;;;;;2.77;2.60;;;-0.80;97.30;;;;;;5052859;28;20179;-86
2022/11/22 01:35:16;;;;;;;2.53;2.33;;;-0.70;97.30;;;;;;5070755;28;20721;-86
2022/11/22 01:37:42;;;;;;;2.93;2.73;;;-0.70;97.30;;;;;;5053077;28;20417;-86
2022/11/22 01:40:09;;;;;;;11.97;4.30;;;-0.70;97.30;;;;;;5052543;28;20179;-86
2022/11/22 01:42:44;;;;;;;9.50;5.43;;;-0.70;97.30;;;;;;5052760;28;20629;-86
2022/11/22 01:45:28;;;;;;;5.93;3.50;;;-0.70;97.30;;;;;;5052379;28;20423;-86
2022/11/22 01:47:55;;;;;;;1.97;1.87;;;-0.60;97.30;;;;;;5052385;28;20418;-86
2022/11/22 01:50:21;;;;;;;11.13;6.80;;;-0.70;97.30;;;;;;5052378;28;20428;-86
2022/11/22 01:52:46;;;;;;;8.73;4.73;;;-0.70;97.30;;;;;;5052475;28;20405;-87
2022/11/22 01:55:13;;;;;;;5.10;4.80;;;-0.70;97.30;;;;;;5052786;28;20329;-87
2022/11/22 01:57:42;;;;;;;5.97;5.57;;;-0.70;97.30;;;;;;5070654;28;20254;-86
2022/11/22 02:00:10;;;;;;;7.70;3.53;;;-0.70;97.30;;;;;;5052299;28;20408;-86
2022/11/22 02:02:36;;;;;;;2.50;2.13;;;-0.70;97.30;;;;;;5052453;28;20764;-86
2022/11/22 02:05:17;;;;;;;10.13;4.10;;;-0.70;97.30;;;;;;5052100;28;20464;-87
2022/11/22 02:07:50;;;;;;;4.13;2.80;;;-0.70;97.30;;;;;;5052952;28;20416;-86
2022/11/22 02:10:17;;;;;;;6.00;4.50;;;-0.70;97.30;;;;;;5052293;28;20504;-86
2022/11/22 02:12:44;;;;;;;3.50;3.30;;;-0.70;97.30;;;;;;5052359;28;20730;-86
2022/11/22 02:15:10;;;;;;;3.57;3.27;;;-0.80;97.30;;;;;;5052260;28;20417;-86
2022/11/22 02:17:36;;;;;;;4.47;4.00;;;-0.80;97.30;;;;;;5052340;28;20424;-86
2022/11/22 02:20:01;;;;;;;13.90;4.03;;;-0.80;97.30;;;;;;5052291;28;20418;-87
2022/11/22 02:22:39;;;;;;;3.00;1.20;;;-0.80;97.30;;;;;;5052226;28;20306;-86
2022/11/22 02:25:31;;;;;;;6.00;3.07;;;-0.80;97.30;;;;;;5052392;28;20266;-86
2022/11/22 02:27:56;;;;;;;6.20;4.70;;;-0.80;97.30;;;;;;5052295;28;20504;-86
2022/11/22 02:30:22;;;;;;;3.60;3.40;;;-0.80;97.30;;;;;;5052064;28;20496;-86
2022/11/22 02:32:48;;;;;;;3.73;3.53;;;-0.80;97.30;;;;;;5052105;28;20229;-86
2022/11/22 02:35:25;;;;;;;2.97;2.77;;;-0.80;97.30;;;;;;5052196;28;20175;-86
2022/11/22 02:38:03;;;;;;;3.33;3.17;;;-0.80;97.30;;;;;;5052170;28;20672;-87
2022/11/22 02:40:35;;;;;;;2.13;1.97;;;-0.80;97.30;;;;;;5053697;28;20464;-86
2022/11/22 02:43:03;;;;;;;2.13;1.97;;;-0.80;97.30;;;;;;5056108;28;20440;-86
2022/11/22 02:45:29;;;;;;;3.63;3.43;;;-0.80;97.30;;;;;;5056118;28;20424;-86
2022/11/22 02:48:21;;;;;;;4.00;3.50;;;-0.80;97.30;;;;;;5055750;28;20409;-86
2022/11/22 02:50:46;;;;;;;2.70;2.50;;;-0.80;97.30;;;;;;5050763;28;20286;-87
2022/11/22 02:53:13;;;;;;;2.73;2.23;;;-0.70;97.30;;;;;;5073932;28;20844;-86
2022/11/22 02:55:39;;;;;;;2.87;2.70;;;-0.70;97.30;;;;;;5055864;28;20190;-86
2022/11/22 02:58:04;;;;;;;5.47;4.07;;;-0.70;97.30;;;;;;5055668;28;20420;-86
2022/11/22 03:00:32;;;;;;;5.83;4.10;;;-0.60;97.30;;;;;;5055581;28;20461;-86
2022/11/22 03:02:59;;;;;;;1.80;1.73;;;-0.60;97.30;;;;;;5073357;28;20821;-86
2022/11/22 03:05:24;;;;;;;3.70;2.27;;;-0.60;97.30;;;;;;5055593;28;20504;-85
2022/11/22 03:07:50;;;;;;;2.50;2.20;;;-0.60;97.30;;;;;;5055578;28;20182;-87
2022/11/22 03:10:15;;;;;;;4.13;2.67;;;-0.60;97.30;;;;;;5055497;28;20180;-87
2022/11/22 03:12:41;;;;;;;5.47;2.70;;;-0.60;97.30;;;;;;5055025;28;20182;-86
2022/11/22 03:15:07;;;;;;;4.50;2.20;;;-0.60;97.30;;;;;;5055466;28;20753;-86
2022/11/22 03:17:33;;;;;;;11.93;3.30;;;-0.60;97.30;;;;;;5054913;28;20250;-86
2022/11/22 03:19:58;;;;;;;5.33;3.23;;;-0.60;97.30;;;;;;5054874;28;20181;-86
2022/11/22 03:22:24;;;;;;;3.80;3.37;;;-0.50;97.30;;;;;;5054880;28;20215;-86
2022/11/22 03:24:49;;;;;;;5.07;4.30;;;-0.50;97.30;;;;;;5055506;28;20264;-86
2022/11/22 03:27:15;;;;;;;2.83;2.63;;;-0.40;97.30;;;;;;5054986;28;20174;-86
2022/11/22 03:29:40;;;;;;;5.53;3.27;;;-0.40;97.30;;;;;;5055284;28;20175;-85
2022/11/22 03:32:06;;;;;;;4.80;2.27;;;-0.40;97.30;;;;;;5055479;28;20175;-85
2022/11/22 03:34:31;;;;;;;1.70;1.60;;;-0.40;97.30;;;;;;5054718;28;20255;-86
2022/11/22 03:36:57;;;;;;;3.90;3.07;;;-0.30;97.30;;;;;;5055428;28;20175;-86
2022/11/22 03:39:23;;;;;;;3.07;2.87;;;-0.30;97.30;;;;;;5054739;28;20179;-86
2022/11/22 03:41:48;;;;;;;3.43;2.70;;;-0.30;97.30;;;;;;5072522;28;20199;-86
2022/11/22 03:44:14;;;;;;;3.13;2.90;;;-0.30;97.30;;;;;;5072291;28;20205;-86
2022/11/22 03:46:40;;;;;;;5.23;3.17;;;-0.30;97.30;;;;;;5054871;28;20178;-86
2022/11/22 03:49:05;;;;;;;4.23;3.30;;;-0.20;97.30;;;;;;5073089;28;20182;-86
2022/11/22 03:51:31;;;;;;;2.90;2.30;;;-0.20;97.30;;;;;;5072711;28;20917;-86
2022/11/22 03:53:57;;;;;;;3.07;2.53;;;-0.20;97.30;;;;;;5055067;28;20191;-84
2022/11/22 03:56:22;;;;;;;5.70;5.40;;;-0.10;97.30;;;;;;5054856;28;20236;-86
2022/11/22 03:58:48;;;;;;;6.13;2.50;;;-0.10;97.30;;;;;;5054857;28;20441;-86
2022/11/22 04:01:13;;;;;;;2.83;2.63;;;-0.10;97.30;;;;;;5054771;28;20268;-86
2022/11/22 04:03:39;;;;;;;5.23;3.50;;;0.00;97.30;;;;;;5073106;28;20302;-86
2022/11/22 04:06:04;;;;;;;3.07;2.20;;;0.00;97.30;;;;;;5054704;28;20227;-86
2022/11/22 04:08:30;;;;;;;4.43;3.37;;;0.00;97.30;;;;;;5055004;28;20182;-86
2022/11/22 04:10:55;;;;;;;4.20;3.10;;;0.00;97.30;;;;;;5072380;28;20185;-87
2022/11/22 04:15:05;;;;;;;6.63;4.70;;;0.00;97.30;;;;;;5054881;28;20203;-86
2022/11/22 04:16:06;;;;;;;6.60;4.33;;;0.10;97.30;;;;;;5073448;28;20579;-86
2022/11/22 04:18:32;;;;;;;2.20;2.00;;;0.10;97.30;;;;;;5054923;28;20505;-86
2022/11/22 04:23:42;;;;;;;8.60;3.40;;;0.10;97.30;;;;;;5073164;28;20210;-86
2022/11/22 04:26:07;;;;;;;3.03;2.33;;;0.10;97.30;;;;;;5054211;28;20908;-86
2022/11/22 04:28:33;;;;;;;4.17;3.93;;;0.10;97.30;;;;;;5054662;28;20340;-87
2022/11/22 04:33:42;;;;;;;7.70;3.63;;;0.10;97.30;;;;;;5072746;28;20578;-86
2022/11/22 04:36:08;;;;;;;2.67;2.47;;;0.10;97.30;;;;;;5054296;28;20418;-86
2022/11/22 04:38:33;;;;;;;3.60;3.30;;;0.10;97.30;;;;;;5072612;28;20256;-87
2022/11/22 04:40:59;;;;;;;11.77;3.30;;;0.10;97.30;;;;;;5053819;28;20271;-86
2022/11/22 04:46:11;;;;;;;2.77;2.60;;;0.10;97.30;;;;;;5072257;28;20186;-86
2022/11/22 04:48:37;;;;;;;3.60;3.40;;;0.10;97.30;;;;;;5071302;28;20417;-86
2022/11/22 04:53:47;;;;;;;2.73;2.53;;;0.20;97.30;;;;;;5071753;28;20958;-86
2022/11/22 04:56:13;;;;;;;9.87;5.17;;;0.20;97.30;;;;;;5053505;28;20416;-86
2022/11/22 04:58:38;;;;;;;6.63;4.80;;;0.20;97.30;;;;;;5054071;28;20179;-86
2022/11/22 05:01:04;;;;;;;3.50;3.00;;;0.20;97.30;;;;;;5054096;28;20734;-86
2022/11/22 05:03:29;;;;;;;2.73;2.30;;;0.30;97.30;;;;;;5050221;28;20260;-86
2022/11/22 05:05:55;;;;;;;2.80;2.30;;;0.20;97.30;;;;;;5072010;23;20693;-83
2022/11/22 05:08:21;;;;;;;3.30;3.10;;;0.30;97.30;;;;;;5036047;28;20169;-85
2022/11/22 05:10:56;;;;;;;7.13;3.77;;;0.30;97.30;;;;;;5050107;28;20220;-81
2022/11/22 05:13:42;;;;;;;3.83;3.07;;;0.30;97.30;;;;;;5035470;28;20186;-83
2022/11/22 05:16:11;;;;;;;3.57;2.10;;;0.30;97.30;;;;;;5039246;28;20477;-84
2022/11/22 05:18:38;;;;;;;7.03;3.60;;;0.30;97.30;;;;;;5018371;28;20480;-83
2022/11/22 05:21:12;;;;;;;5.43;3.07;;;0.30;97.30;;;;;;5021290;28;20508;-85
2022/11/22 05:23:53;;;;;;;24.27;4.47;;;0.20;97.30;;;;;;5041711;28;20425;-84
2022/11/22 05:26:32;;;;;;;5.73;3.70;;;0.30;97.30;;;;;;5033931;28;20434;-84
2022/11/22 05:29:02;;;;;;;3.97;3.77;;;0.30;97.30;;;;;;5033604;28;20421;-84
2022/11/22 05:31:27;;;;;;;3.00;2.80;;;0.30;97.30;;;;;;5051545;28;20928;-84
2022/11/22 05:33:55;;;;;;;4.50;2.73;;;0.30;97.30;;;;;;5033193;28;20415;-84
2022/11/22 05:36:22;;;;;;;8.70;5.23;;;0.30;97.30;;;;;;5050409;28;20589;-84
2022/11/22 05:38:48;;;;;;;3.73;3.50;;;0.30;97.30;;;;;;5032401;28;20457;-84
2022/11/22 05:41:15;;;;;;;8.53;5.30;;;0.30;97.30;;;;;;5032478;28;20516;-84
2022/11/22 05:43:41;;;;;;;3.10;2.90;;;0.30;97.30;;;;;;5050813;28;20409;-84
2022/11/22 05:46:12;;;;;;;5.80;4.07;;;0.30;97.30;;;;;;5032802;28;20452;-84
2022/11/22 05:48:40;;;;;;;6.90;4.57;;;0.30;97.30;;;;;;5032843;28;20266;-84
2022/11/22 05:51:08;;;;;;;7.90;4.83;;;0.30;97.30;;;;;;5032614;28;20460;-84
2022/11/22 05:53:35;;;;;;;4.90;3.13;;;0.30;97.30;;;;;;5033922;28;20422;-85
2022/11/22 05:56:08;;;;;;;5.87;4.30;;;0.30;97.30;;;;;;5032206;28;20434;-84
2022/11/22 05:58:34;;;;;;;5.73;4.30;;;0.30;97.30;;;;;;5032091;28;20428;-86
2022/11/22 06:01:10;;;;;;;5.50;5.27;;;0.30;97.30;;;;;;5029604;28;20453;-85
2022/11/22 06:03:36;;;;;;;3.43;3.23;;;0.30;97.30;;;;;;5013384;28;20479;-84
2022/11/22 06:06:03;;;;;;;6.70;3.40;;;0.30;97.30;;;;;;5042892;28;20472;-84
2022/11/22 06:08:31;;;;;;;3.90;2.50;;;0.30;97.30;;;;;;5025487;28;20420;-84
2022/11/22 06:11:23;;;;;;;4.37;2.67;;;0.30;97.30;;;;;;5042232;28;20419;-85
2022/11/22 06:13:51;;;;;;;6.80;3.97;;;0.30;97.30;;;;;;5037699;28;20474;-85
2022/11/22 06:16:17;;;;;;;9.50;4.43;;;0.40;97.30;;;;;;5038250;28;20984;-84
2022/11/22 06:18:43;;;;;;;2.50;2.30;;;0.40;97.30;;;;;;5024906;28;20426;-85
2022/11/22 06:21:22;;;;;;;3.10;2.90;;;0.40;97.30;;;;;;5027150;28;20462;-84
2022/11/22 06:23:49;;;;;;;5.03;4.77;;;0.40;97.30;;;;;;5055177;28;20425;-85
2022/11/22 06:26:17;;;;;;;2.23;2.03;;;0.40;97.30;;;;;;5024858;28;20475;-84
2022/11/22 06:28:44;;;;;;;5.80;3.73;;;0.40;97.30;;;;;;5024984;28;20419;-85
2022/11/22 06:31:14;;;;;;;5.40;4.27;;;0.40;97.30;;;;;;5049990;28;20662;-84
2022/11/22 06:33:41;;;;;;;7.23;3.30;;;0.40;97.30;;;;;;5025363;28;20458;-84
2022/11/22 06:36:15;;;;;;;7.33;4.40;;;0.40;97.30;;;;;;5025067;28;20520;-85
2022/11/22 06:38:42;;;;;;;10.80;3.70;;;0.40;97.30;;;;;;5025193;28;20420;-85
2022/11/22 06:41:10;;;;;;;6.97;5.37;;;0.40;97.30;;;;;;5024028;28;20481;-84
2022/11/22 06:43:37;;;;;;;10.10;4.40;;;0.40;97.30;;;;;;5025162;28;20464;-84
2022/11/22 06:46:04;;;;;;;2.53;2.33;;;0.40;97.30;;;;;;5023630;28;20442;-84
2022/11/22 06:48:32;;;;;;;3.80;3.60;;;0.40;97.30;;;;;;5026746;28;20948;-85
2022/11/22 06:50:59;;;;;;;2.53;2.33;;;0.40;97.30;;;;;;5026323;28;20423;-84
2022/11/22 06:53:29;;;;;;;4.80;3.67;;;0.40;97.30;;;;;;5023736;28;20419;-84
2022/11/22 06:56:06;;;;;;;3.93;3.70;;;0.40;97.30;;;;;;5041642;28;20794;-84
2022/11/22 06:58:32;;;;;;;2.30;2.10;;;0.40;97.30;;;;;;5026194;28;20413;-84
2022/11/22 07:01:11;;;;;;;7.40;4.33;;;0.40;97.30;;;;;;5026100;28;20662;-84
2022/11/22 07:03:38;;;;;;;1.90;1.80;;;0.40;97.30;;;;;;5030058;28;20481;-84
2022/11/22 07:06:06;;;;;;;2.80;2.50;;;0.40;97.30;;;;;;5023797;28;20451;-84
2022/11/22 07:08:31;;;;;;;2.87;2.73;;;0.40;97.30;;;;;;5041085;28;20418;-84
2022/11/22 07:11:01;;;;;;;7.80;4.43;;;0.40;97.30;;;;;;5024905;28;20415;-84
2022/11/22 07:13:27;;;;;;;4.03;2.80;;;0.50;97.30;;;;;;5025589;28;20421;-84
2022/11/22 07:15:55;;;;;;;7.13;3.80;;;0.40;97.30;;;;;;5053077;28;20435;-84
2022/11/22 07:18:20;;;;;;;10.53;5.50;;;0.50;97.30;;;;;;5023863;28;20180;-84
2022/11/22 07:20:46;;;;;;;7.00;4.80;;;0.50;97.30;;;;;;5042527;28;20465;-84
2022/11/22 07:23:12;;;;;;;3.80;3.00;;;0.50;97.30;;;;;;5042154;28;20407;-84
2022/11/22 07:25:38;;;;;;;4.10;2.90;;;0.50;97.30;;;;;;5042264;28;20724;-85
2022/11/22 07:28:03;;;;;;;3.10;2.50;;;0.50;97.30;;;;;;5025718;28;20435;-85
2022/11/22 07:30:29;;;;;;;3.57;3.37;;;0.50;97.30;;;;;;5025465;28;20180;-85
2022/11/22 07:32:54;;;;;;;8.63;3.20;;;0.50;97.30;;;;;;5023939;28;20189;-85
2022/11/22 07:35:20;;;;;;;4.13;3.90;;;0.60;97.30;;;;;;5028891;28;20192;-86
2022/11/22 07:37:46;;;;;;;8.40;5.93;;;0.60;97.30;;;;;;5019260;28;20640;-85
2022/11/22 07:40:12;;;;;;;6.93;4.60;;;0.60;97.30;;;;;;5015867;28;20215;-85
2022/11/22 07:42:37;;;;;;;7.03;4.20;;;0.60;97.30;;;;;;5018167;28;20235;-85
2022/11/22 07:45:03;;;;;;;8.20;4.30;;;0.70;97.30;;;;;;5026067;28;20430;-86
2022/11/22 07:47:29;;;;;;;4.17;2.73;;;0.70;97.30;;;;;;5031677;28;20212;-85
2022/11/22 07:49:54;;;;;;;7.23;3.73;;;0.70;97.30;;;;;;5025420;28;20442;-84
2022/11/22 07:52:20;;;;;;;3.30;2.70;;;0.70;97.30;;;;;;5030470;28;20187;-83
2022/11/22 07:54:45;;;;;;;5.43;4.40;;;0.80;97.30;;;;;;5033754;28;20210;-85
2022/11/22 07:57:11;;;;;;;4.77;4.47;;;0.80;97.30;;;;;;5030965;28;20184;-84
2022/11/22 07:59:36;;;;;;;2.23;2.03;;;0.80;97.30;;;;;;5034454;28;20261;-84
2022/11/22 08:02:02;;;;;;;3.40;3.20;;;0.80;97.30;;;;;;5034396;28;20208;-84
2022/11/22 08:04:27;;;;;;;2.20;2.00;;;0.90;97.30;;;;;;5034080;28;20207;-84
2022/11/22 08:06:53;;;;;;;9.63;4.17;;;0.90;97.30;;;;;;5034730;28;20183;-85
2022/11/22 08:09:18;;;;;;;4.00;3.00;;;0.90;97.30;;;;;;5034484;28;20341;-84
2022/11/22 08:11:44;;;;;;;2.97;2.77;;;0.90;97.30;;;;;;5034499;28;20653;-85
2022/11/22 08:14:10;;;;;;;3.43;3.23;;;1.00;97.30;;;;;;5033744;28;20209;-85
2022/11/22 08:16:36;;;;;;;3.50;3.30;;;1.00;97.30;;;;;;5034190;28;20275;-85
2022/11/22 08:19:01;;;;;;;3.80;3.60;;;1.10;97.30;;;;;;5034297;28;21027;-84
2022/11/22 08:21:27;;;;;;;5.90;4.17;;;1.10;97.30;;;;;;5034134;28;20218;-85
2022/11/22 08:23:56;;;;;;;4.87;3.60;;;1.20;97.30;;;;;;5052071;28;20194;-84
2022/11/22 08:26:22;;;;;;;3.83;3.63;;;1.30;97.30;;;;;;5034104;28;20195;-84
2022/11/22 08:28:48;;;;;;;3.90;3.23;;;1.30;97.30;;;;;;5034504;28;20420;-84
2022/11/22 08:31:18;;;;;;;5.93;3.53;;;1.40;97.30;;;;;;5033968;28;20188;-85
2022/11/22 08:33:45;;;;;;;3.80;2.83;;;1.40;97.30;;;;;;5034051;28;20206;-84
2022/11/22 08:36:11;;;;;;;3.63;2.80;;;1.50;97.30;;;;;;5033810;28;20525;-84
2022/11/22 08:38:37;;;;;;;2.67;2.43;;;1.50;97.30;;;;;;5032867;28;20502;-85
2022/11/22 08:41:04;;;;;;;2.40;2.20;;;1.50;97.30;;;;;;5033849;28;20903;-84
2022/11/22 08:43:30;;;;;;;5.87;3.40;;;1.50;97.30;;;;;;5033779;28;20414;-84
2022/11/22 08:46:00;;;;;;;4.20;2.70;;;1.60;97.30;;;;;;5034408;28;20442;-82
2022/11/22 08:48:28;;;;;;;3.30;2.83;;;1.60;97.30;;;;;;5051853;28;20403;-84
2022/11/22 08:50:55;;;;;;;3.37;3.20;;;1.70;97.30;;;;;;5033847;28;20422;-85
2022/11/22 08:53:22;;;;;;;7.43;4.27;;;1.70;97.30;;;;;;5052392;28;20414;-84
2022/11/22 08:55:48;;;;;;;2.87;2.67;;;1.70;97.30;;;;;;5034263;28;20499;-85
2022/11/22 08:58:13;;;;;;;2.77;2.57;;;1.70;97.30;;;;;;5034550;28;20521;-84
2022/11/22 09:00:39;;;;;;;8.10;5.30;;;1.70;97.30;;;;;;5034626;28;20187;-84
2022/11/22 09:03:04;;;;;;;5.10;3.17;;;1.70;97.30;;;;;;5052149;28;20170;-84
2022/11/22 09:05:30;;;;;;;4.90;4.60;;;1.80;97.30;;;;;;5034034;28;20698;-85
2022/11/22 09:07:57;;;;;;;4.13;2.93;;;1.80;97.30;;;;;;5034130;28;20301;-84
2022/11/22 09:10:22;;;;;;;2.23;2.10;;;1.90;97.30;;;;;;5034613;28;20503;-84
2022/11/22 09:12:48;;;;;;;4.00;3.50;;;1.90;97.30;;;;;;5052554;28;20818;-84
2022/11/22 09:15:14;;;;;;;7.23;4.97;;;2.00;97.30;;;;;;5034494;28;20809;-83
2022/11/22 09:17:41;;;;;;;5.80;2.57;;;2.00;97.30;;;;;;5034555;28;20172;-84
2022/11/22 09:20:07;;;;;;;2.70;2.53;;;2.00;97.30;;;;;;5034337;28;20415;-84
2022/11/22 09:22:33;;;;;;;4.13;3.50;;;2.10;97.30;;;;;;5051485;28;20537;-84
2022/11/22 09:24:59;;;;;;;4.20;3.30;;;2.10;97.30;;;;;;5052199;28;20517;-84
2022/11/22 09:27:24;;;;;;;4.97;4.17;;;2.20;97.30;;;;;;5033830;28;20948;-84
2022/11/22 09:29:50;;;;;;;3.23;2.80;;;2.20;97.30;;;;;;5034781;28;20179;-83
2022/11/22 09:32:15;;;;;;;8.77;3.47;;;2.30;97.30;;;;;;5035032;28;20210;-84
2022/11/22 09:34:41;;;;;;;4.30;3.97;;;2.40;97.30;;;;;;5034613;28;20701;-84
2022/11/22 09:37:06;;;;;;;3.80;3.63;;;2.40;97.30;;;;;;5050533;28;20187;-84
2022/11/22 09:39:32;;;;;;;6.63;2.77;;;2.50;97.30;;;;;;5050339;28;20198;-84
2022/11/22 09:42:15;;;;;;;2.93;2.73;;;2.60;97.30;;;;;;5032408;28;20208;-84
2022/11/22 09:44:53;;;;;;;5.23;2.30;;;2.70;97.30;;;;;;5032768;28;20438;-85
2022/11/22 09:48:00;;;;;;;2.63;2.43;;;2.70;97.30;;;;;;5033263;28;20410;-84
2022/11/22 09:50:45;;;;;;;3.17;3.00;;;2.70;97.30;;;;;;5032503;28;20513;-84
2022/11/22 09:53:32;;;;;;;4.30;2.47;;;2.80;97.30;;;;;;5032382;28;20422;-85
2022/11/22 09:56:01;;;;;;;4.30;4.03;;;2.80;97.30;;;;;;5032161;28;20442;-85
2022/11/22 09:58:49;;;;;;;3.57;2.97;;;2.90;97.30;;;;;;5032964;28;20423;-85
2022/11/22 10:02:06;;;;;;;5.60;1.93;;;2.90;97.30;;;;;;5042713;28;20444;-85
2022/11/22 10:04:39;;;;;;;10.37;3.63;;;2.90;97.30;;;;;;4996101;28;20520;-87
2022/11/22 10:07:13;;;;;;;6.03;3.60;;;3.00;97.30;;;;;;5039425;28;20453;-85
2022/11/22 10:10:03;;;;;;;5.63;5.00;;;3.00;97.30;;;;;;5032345;28;20820;-84
2022/11/22 10:12:40;;;;;;;5.13;4.33;;;3.00;97.30;;;;;;5032174;28;20411;-86
2022/11/22 10:15:28;;;;;;;3.40;3.17;;;3.00;97.30;;;;;;5032704;28;20429;-84
2022/11/22 10:17:59;;;;;;;17.93;2.60;;;3.00;97.30;;;;;;5032574;28;20511;-85
2022/11/22 10:20:35;;;;;;;4.20;3.53;;;3.00;97.30;;;;;;5032127;28;20422;-85
2022/11/22 10:23:01;;;;;;;4.63;3.60;;;3.10;97.30;;;;;;5032514;28;20789;-85
2022/11/22 10:25:44;;;;;;;3.50;2.90;;;3.10;97.30;;;;;;5049998;28;20426;-85
2022/11/22 10:28:21;;;;;;;4.60;3.80;;;3.20;97.30;;;;;;5032136;28;20471;-85
2022/11/22 10:31:22;;;;;;;4.77;3.83;;;3.20;97.30;;;;;;5032162;28;20994;-85
2022/11/22 10:34:13;;;;;;;11.27;5.47;;;3.30;97.30;;;;;;5031454;28;20418;-85
2022/11/22 10:36:44;;;;;;;12.33;3.93;;;3.40;97.30;;;;;;5012130;28;20512;-84
2022/11/22 10:39:18;;;;;;;9.60;4.83;;;3.40;97.30;;;;;;5012045;28;20430;-83
2022/11/22 10:42:26;;;;;;;4.80;2.70;;;3.40;97.30;;;;;;5032176;28;20469;-84
2022/11/22 10:45:06;;;;;;;4.43;2.23;;;3.40;97.30;;;;;;5024352;28;20558;-84
2022/11/22 10:47:44;;;;;;;7.53;3.20;;;3.40;97.30;;;;;;5032158;28;20410;-84
2022/11/22 10:50:24;;;;;;;4.43;3.63;;;3.50;97.30;;;;;;5034381;28;20506;-84
2022/11/22 10:53:21;;;;;;;2.00;1.90;;;3.50;97.30;;;;;;5031958;28;20433;-84
2022/11/22 10:56:12;;;;;;;3.13;2.60;;;3.50;97.30;;;;;;5048489;28;20440;-85
2022/11/22 10:58:56;;;;;;;2.57;2.37;;;3.50;97.30;;;;;;5005524;28;20453;-84
2022/11/22 11:01:33;;;;;;;2.27;2.07;;;3.50;97.30;;;;;;5030227;28;20445;-84
2022/11/22 11:04:00;;;;;;;8.30;2.40;;;3.60;97.30;;;;;;5032140;28;20414;-85
2022/11/22 11:06:33;;;;;;;11.03;3.33;;;3.70;97.30;;;;;;5067750;22;20508;-85
2022/11/22 11:09:14;;;;;;;2.90;2.70;;;3.70;97.30;;;;;;5027064;28;20430;-84
2022/11/22 11:11:43;;;;;;;6.67;3.60;;;3.80;97.30;;;;;;5020804;28;20856;-84
2022/11/22 11:14:18;;;;;;;4.20;3.20;;;3.80;97.30;;;;;;5034065;28;20662;-84
2022/11/22 11:16:45;;;;;;;3.43;2.43;;;3.80;97.30;;;;;;5039180;28;20433;-85
2022/11/22 11:19:10;;;;;;;6.63;4.03;;;3.80;97.30;;;;;;5025954;28;20430;-85
2022/11/22 11:21:36;;;;;;;11.03;3.20;;;3.80;97.30;;;;;;5024635;28;20462;-85
2022/11/22 11:24:05;;;;;;;4.87;4.60;;;3.80;97.30;;;;;;5023895;28;20169;-85
2022/11/22 11:26:33;;;;;;;4.27;4.00;;;3.80;97.30;;;;;;5023083;28;20434;-84
2022/11/22 11:29:17;;;;;;;3.73;3.07;;;3.80;97.30;;;;;;5040864;28;20910;-85
2022/11/22 11:31:45;;;;;;;7.47;3.13;;;3.90;97.30;;;;;;5035712;28;20427;-84
2022/11/22 11:34:23;;;;;;;3.03;2.83;;;3.90;97.30;;;;;;5017832;28;20466;-85
2022/11/22 11:36:49;;;;;;;3.37;3.17;;;3.90;97.30;;;;;;5035131;28;20442;-85
2022/11/22 11:39:29;;;;;;;5.27;2.03;;;3.90;97.30;;;;;;5015495;28;20526;-84
2022/11/22 11:41:56;;;;;;;3.17;2.97;;;3.90;97.30;;;;;;5015193;28;20549;-84
2022/11/22 11:44:35;;;;;;;2.07;1.93;;;3.90;97.30;;;;;;5014992;28;20791;-84
2022/11/22 11:47:01;;;;;;;2.63;2.43;;;3.90;97.30;;;;;;5013717;28;20509;-84
2022/11/22 11:49:28;;;;;;;3.77;2.87;;;4.00;97.30;;;;;;5014750;28;20412;-85
2022/11/22 11:52:07;;;;;;;3.43;3.07;;;4.00;97.30;;;;;;5014919;28;20466;-84
2022/11/22 11:54:42;;;;;;;4.60;2.90;;;4.00;97.30;;;;;;5015146;28;20423;-83
2022/11/22 11:57:22;;;;;;;2.50;2.30;;;4.00;97.30;;;;;;5015170;28;20525;-84
2022/11/22 11:59:50;;;;;;;3.00;2.80;;;4.00;97.30;;;;;;5016711;28;20494;-83
2022/11/22 12:02:41;;;;;;;11.13;3.50;;;4.00;97.30;;;;;;5021378;28;20478;-84
2022/11/22 12:05:25;;;;;;;7.90;3.87;;;4.00;97.30;;;;;;5019276;28;20518;-82
2022/11/22 12:07:51;;;;;;;3.07;2.87;;;4.00;97.30;;;;;;5034015;28;20423;-84
2022/11/22 12:10:48;;;;;;;3.47;3.33;;;4.10;97.30;;;;;;5015518;28;20845;-84
2022/11/22 12:13:39;;;;;;;3.47;2.67;;;4.10;97.30;;;;;;5016627;28;20189;-83
2022/11/22 12:16:35;;;;;;;2.87;2.70;;;4.10;97.30;;;;;;5014924;28;20439;-84
2022/11/22 12:19:26;;;;;;;4.10;3.23;;;4.20;97.30;;;;;;5032483;28;20423;-84
2022/11/22 12:22:26;;;;;;;2.30;2.13;;;4.20;97.30;;;;;;5030320;28;20463;-84
2022/11/22 12:25:37;;;;;;;5.80;4.90;;;4.30;97.30;;;;;;5013214;28;20445;-84
2022/11/22 12:28:18;;;;;;;4.40;4.10;;;4.30;97.30;;;;;;5014670;28;20925;-84
2022/11/22 12:30:46;;;;;;;4.97;2.80;;;4.40;97.30;;;;;;5030826;28;20416;-84
2022/11/22 12:33:22;;;;;;;11.00;2.90;;;4.50;97.30;;;;;;5017939;28;20414;-84
2022/11/22 12:35:52;;;;;;;5.90;3.40;;;4.50;97.30;;;;;;5015176;28;20431;-84
2022/11/22 12:38:23;;;;;;;6.83;3.93;;;4.50;97.30;;;;;;5013732;28;20960;-83
2022/11/22 12:40:56;;;;;;;3.33;3.00;;;4.60;97.30;;;;;;5015314;28;20459;-84
2022/11/22 12:43:25;;;;;;;3.53;3.43;;;4.60;97.30;;;;;;5028655;28;20431;-84
2022/11/22 12:45:57;;;;;;;2.43;2.23;;;4.60;97.30;;;;;;5032237;28;20501;-85
2022/11/22 12:48:32;;;;;;;4.83;4.27;;;4.70;97.30;;;;;;5013198;28;20716;-84
2022/11/22 12:51:29;;;;;;;4.30;2.37;;;4.70;97.30;;;;;;5032362;28;20960;-84
2022/11/22 12:54:03;;;;;;;2.87;2.50;;;4.70;97.30;;;;;;5027369;28;20487;-84
2022/11/22 12:56:41;;;;;;;2.73;2.53;;;4.70;97.30;;;;;;5051214;28;20438;-84
2022/11/22 12:59:10;;;;;;;4.27;4.00;;;4.70;97.30;;;;;;5035119;28;20429;-84
2022/11/22 13:01:41;;;;;;;2.17;1.90;;;4.70;97.30;;;;;;5020792;28;20455;-83
2022/11/22 13:04:10;;;;;;;7.40;3.53;;;4.70;97.30;;;;;;5029648;28;20418;-84
2022/11/22 13:06:50;;;;;;;4.70;3.97;;;4.70;97.30;;;;;;5033391;28;20470;-83
2022/11/22 13:09:37;;;;;;;4.27;2.87;;;4.80;97.30;;;;;;5018535;28;20476;-82
2022/11/22 13:12:12;;;;;;;2.13;1.80;;;4.80;97.30;;;;;;5015569;28;20415;-84
2022/11/22 13:14:43;;;;;;;2.97;1.70;;;4.80;97.30;;;;;;5017199;28;20957;-83
2022/11/22 13:17:11;;;;;;;3.50;2.40;;;4.90;97.30;;;;;;5014709;28;20473;-84
2022/11/22 13:19:57;;;;;;;3.87;2.80;;;4.90;97.30;;;;;;5034445;28;20533;-83